sensor_id;sensor_type;location;lat;lon;timestamp;pressure;altitude;pressure_sealevel;temperature;humidity
64460;BME280;50828;53.756;21.140;2022-07-30T00:00:27;100344.45;;;14.81;56.80
64460;BME280;50828;53.756;21.140;2022-07-30T00:05:36;100342.09;;;14.73;56.71
64460;BME280;50828;53.756;21.140;2022-07-30T00:10:44;100341.58;;;14.62;56.71
64460;BME280;50828;53.756;21.140;2022-07-30T00:15:55;100336.04;;;14.53;57.05
64460;BME280;50828;53.756;21.140;2022-07-30T00:21:03;100334.55;;;14.44;57.20
64460;BME280;50828;53.756;21.140;2022-07-30T00:26:11;100340.22;;;14.37;57.56
64460;BME280;50828;53.756;21.140;2022-07-30T00:31:20;100340.70;;;14.31;57.86
64460;BME280;50828;53.756;21.140;2022-07-30T00:36:28;100340.11;;;14.25;57.79
64460;BME280;50828;53.756;21.140;2022-07-30T00:41:53;100341.90;;;14.18;57.91
64460;BME280;50828;53.756;21.140;2022-07-30T00:47:02;100336.25;;;14.11;58.41
64460;BME280;50828;53.756;21.140;2022-07-30T00:52:10;100338.95;;;14.03;58.11
64460;BME280;50828;53.756;21.140;2022-07-30T00:57:19;100338.67;;;13.95;57.93
64460;BME280;50828;53.756;21.140;2022-07-30T01:02:27;100331.59;;;13.84;57.98
64460;BME280;50828;53.756;21.140;2022-07-30T01:07:36;100325.56;;;13.77;58.31
64460;BME280;50828;53.756;21.140;2022-07-30T01:12:46;100326.54;;;13.68;58.08
64460;BME280;50828;53.756;21.140;2022-07-30T01:17:57;100315.51;;;13.59;58.07
64460;BME280;50828;53.756;21.140;2022-07-30T01:23:09;100313.68;;;13.49;58.49
64460;BME280;50828;53.756;21.140;2022-07-30T01:28:23;100311.30;;;13.40;58.23
64460;BME280;50828;53.756;21.140;2022-07-30T01:33:36;100309.13;;;13.30;58.33
64460;BME280;50828;53.756;21.140;2022-07-30T01:38:46;100305.13;;;13.20;58.54
64460;BME280;50828;53.756;21.140;2022-07-30T01:43:57;100307.09;;;13.13;59.06
64460;BME280;50828;53.756;21.140;2022-07-30T01:49:06;100303.05;;;13.04;58.88
64460;BME280;50828;53.756;21.140;2022-07-30T01:54:20;100293.55;;;12.96;59.09
64460;BME280;50828;53.756;21.140;2022-07-30T01:59:31;100280.20;;;12.86;59.10
64460;BME280;50828;53.756;21.140;2022-07-30T02:04:41;100269.39;;;12.76;58.97
64460;BME280;50828;53.756;21.140;2022-07-30T02:09:53;100269.27;;;12.71;58.97
64460;BME280;50828;53.756;21.140;2022-07-30T02:15:11;100267.45;;;12.61;58.79
64460;BME280;50828;53.756;21.140;2022-07-30T02:20:25;100264.73;;;12.51;58.71
64460;BME280;50828;53.756;21.140;2022-07-30T02:25:37;100263.39;;;12.41;58.41
64460;BME280;50828;53.756;21.140;2022-07-30T02:30:52;100260.64;;;12.31;58.71
64460;BME280;50828;53.756;21.140;2022-07-30T02:36:03;100258.27;;;12.22;58.66
64460;BME280;50828;53.756;21.140;2022-07-30T02:41:17;100248.60;;;12.12;58.65
64460;BME280;50828;53.756;21.140;2022-07-30T02:46:27;100250.80;;;12.03;58.75
64460;BME280;50828;53.756;21.140;2022-07-30T02:51:58;100241.69;;;11.93;58.93
64460;BME280;50828;53.756;21.140;2022-07-30T02:57:07;100246.98;;;11.84;59.04
64460;BME280;50828;53.756;21.140;2022-07-30T03:02:17;100234.83;;;11.76;59.25
64460;BME280;50828;53.756;21.140;2022-07-30T03:07:36;100220.52;;;11.68;59.34
64460;BME280;50828;53.756;21.140;2022-07-30T03:12:46;100222.80;;;11.60;59.42
64460;BME280;50828;53.756;21.140;2022-07-30T03:17:57;100231.72;;;11.53;59.59
64460;BME280;50828;53.756;21.140;2022-07-30T03:23:08;100233.30;;;11.49;60.34
64460;BME280;50828;53.756;21.140;2022-07-30T03:28:19;100235.72;;;11.46;60.38
64460;BME280;50828;53.756;21.140;2022-07-30T03:33:28;100246.60;;;11.43;60.79
64460;BME280;50828;53.756;21.140;2022-07-30T03:38:45;100243.16;;;11.41;61.33
64460;BME280;50828;53.756;21.140;2022-07-30T03:43:54;100236.14;;;11.40;61.56
64460;BME280;50828;53.756;21.140;2022-07-30T03:49:03;100234.11;;;11.43;61.51
64460;BME280;50828;53.756;21.140;2022-07-30T03:54:13;100238.58;;;11.50;62.16
64460;BME280;50828;53.756;21.140;2022-07-30T03:59:56;100231.70;;;11.66;63.00
64460;BME280;50828;53.756;21.140;2022-07-30T04:05:05;100226.92;;;11.87;63.13
64460;BME280;50828;53.756;21.140;2022-07-30T04:10:14;100225.39;;;12.14;63.72
64460;BME280;50828;53.756;21.140;2022-07-30T04:15:53;100219.02;;;12.46;64.17
64460;BME280;50828;53.756;21.140;2022-07-30T04:21:25;100228.89;;;12.77;64.29
64460;BME280;50828;53.756;21.140;2022-07-30T04:26:36;100244.08;;;13.03;64.11
64460;BME280;50828;53.756;21.140;2022-07-30T04:31:44;100242.49;;;13.25;64.03
64460;BME280;50828;53.756;21.140;2022-07-30T04:37:12;100240.67;;;13.48;64.03
64460;BME280;50828;53.756;21.140;2022-07-30T04:42:22;100220.61;;;13.74;63.89
64460;BME280;50828;53.756;21.140;2022-07-30T04:47:39;100212.74;;;14.05;64.23
64460;BME280;50828;53.756;21.140;2022-07-30T04:53:04;100210.83;;;14.45;64.47
64460;BME280;50828;53.756;21.140;2022-07-30T04:58:16;100210.86;;;14.86;64.32
64460;BME280;50828;53.756;21.140;2022-07-30T05:03:26;100218.30;;;15.27;64.15
64460;BME280;50828;53.756;21.140;2022-07-30T05:08:34;100221.32;;;15.66;63.91
64460;BME280;50828;53.756;21.140;2022-07-30T05:13:46;100235.42;;;16.07;63.27
64460;BME280;50828;53.756;21.140;2022-07-30T05:18:58;100238.04;;;16.45;63.16
64460;BME280;50828;53.756;21.140;2022-07-30T05:24:14;100242.84;;;16.82;62.52
64460;BME280;50828;53.756;21.140;2022-07-30T05:29:31;100247.14;;;17.20;61.78
64460;BME280;50828;53.756;21.140;2022-07-30T05:34:48;100235.30;;;17.57;61.04
64460;BME280;50828;53.756;21.140;2022-07-30T05:39:57;100222.21;;;17.90;60.29
64460;BME280;50828;53.756;21.140;2022-07-30T05:45:37;100213.68;;;18.25;59.31
64460;BME280;50828;53.756;21.140;2022-07-30T05:50:45;100208.78;;;18.57;58.77
64460;BME280;50828;53.756;21.140;2022-07-30T05:55:54;100208.85;;;18.86;57.63
64460;BME280;50828;53.756;21.140;2022-07-30T06:01:35;100206.66;;;19.13;56.77
64460;BME280;50828;53.756;21.140;2022-07-30T06:06:50;100202.85;;;19.40;56.14
64460;BME280;50828;53.756;21.140;2022-07-30T06:11:58;100201.33;;;19.65;55.33
64460;BME280;50828;53.756;21.140;2022-07-30T06:17:07;100198.54;;;19.85;54.21
64460;BME280;50828;53.756;21.140;2022-07-30T06:22:35;100190.29;;;20.02;53.37
64460;BME280;50828;53.756;21.140;2022-07-30T06:27:47;100187.55;;;20.14;53.10
64460;BME280;50828;53.756;21.140;2022-07-30T06:32:55;100183.96;;;20.23;52.72
64460;BME280;50828;53.756;21.140;2022-07-30T06:38:04;100178.80;;;20.29;52.22
64460;BME280;50828;53.756;21.140;2022-07-30T06:43:23;100174.95;;;20.35;51.77
64460;BME280;50828;53.756;21.140;2022-07-30T06:48:50;100175.08;;;20.43;51.80
64460;BME280;50828;53.756;21.140;2022-07-30T06:53:59;100171.29;;;20.54;51.59
64460;BME280;50828;53.756;21.140;2022-07-30T06:59:14;100171.40;;;20.66;51.15
64460;BME280;50828;53.756;21.140;2022-07-30T07:04:49;100172.80;;;20.78;50.77
64460;BME280;50828;53.756;21.140;2022-07-30T07:09:57;100170.71;;;20.88;50.44
64460;BME280;50828;53.756;21.140;2022-07-30T07:15:35;100170.10;;;20.97;50.05
64460;BME280;50828;53.756;21.140;2022-07-30T07:20:46;100174.02;;;21.06;49.91
64460;BME280;50828;53.756;21.140;2022-07-30T07:25:56;100167.94;;;21.15;49.64
64460;BME280;50828;53.756;21.140;2022-07-30T07:31:05;100166.35;;;21.25;49.17
64460;BME280;50828;53.756;21.140;2022-07-30T07:36:14;100161.48;;;21.36;48.81
64460;BME280;50828;53.756;21.140;2022-07-30T07:41:22;100153.66;;;21.51;48.63
64460;BME280;50828;53.756;21.140;2022-07-30T07:46:32;100156.25;;;21.71;48.68
64460;BME280;50828;53.756;21.140;2022-07-30T07:51:41;100150.67;;;21.96;48.45
64460;BME280;50828;53.756;21.140;2022-07-30T07:56:56;100150.27;;;22.25;47.62
64460;BME280;50828;53.756;21.140;2022-07-30T08:02:15;100143.20;;;22.51;46.70
64460;BME280;50828;53.756;21.140;2022-07-30T08:07:29;100139.69;;;22.70;46.15
64460;BME280;50828;53.756;21.140;2022-07-30T08:12:54;100130.96;;;22.81;45.10
64460;BME280;50828;53.756;21.140;2022-07-30T08:18:21;100131.48;;;22.88;44.58
64460;BME280;50828;53.756;21.140;2022-07-30T08:23:49;100128.16;;;22.94;43.84
64460;BME280;50828;53.756;21.140;2022-07-30T08:28:58;100127.84;;;22.98;43.38
64460;BME280;50828;53.756;21.140;2022-07-30T08:34:07;100120.80;;;23.00;43.36
64460;BME280;50828;53.756;21.140;2022-07-30T08:39:16;100117.02;;;23.02;42.90
64460;BME280;50828;53.756;21.140;2022-07-30T08:44:25;100120.05;;;23.04;42.92
64460;BME280;50828;53.756;21.140;2022-07-30T08:49:34;100110.00;;;23.05;42.49
64460;BME280;50828;53.756;21.140;2022-07-30T08:54:44;100106.85;;;23.07;42.24
64460;BME280;50828;53.756;21.140;2022-07-30T08:59:53;100104.75;;;23.08;42.33
64460;BME280;50828;53.756;21.140;2022-07-30T09:05:09;100102.95;;;23.11;42.25
64460;BME280;50828;53.756;21.140;2022-07-30T09:10:16;100103.27;;;23.13;42.08
64460;BME280;50828;53.756;21.140;2022-07-30T09:15:25;100104.23;;;23.16;42.15
64460;BME280;50828;53.756;21.140;2022-07-30T09:20:34;100091.48;;;23.12;41.76
64460;BME280;50828;53.756;21.140;2022-07-30T09:25:47;100099.02;;;23.22;41.69
64460;BME280;50828;53.756;21.140;2022-07-30T09:31:16;100096.70;;;23.21;41.24
64460;BME280;50828;53.756;21.140;2022-07-30T09:36:42;100088.14;;;23.21;41.19
64460;BME280;50828;53.756;21.140;2022-07-30T09:42:00;100080.06;;;23.25;41.08
64460;BME280;50828;53.756;21.140;2022-07-30T09:47:10;100074.21;;;23.30;41.23
64460;BME280;50828;53.756;21.140;2022-07-30T09:52:38;100076.55;;;23.35;41.15
64460;BME280;50828;53.756;21.140;2022-07-30T09:57:57;100076.03;;;23.43;41.01
64460;BME280;50828;53.756;21.140;2022-07-30T10:03:18;100076.95;;;23.50;40.97
64460;BME280;50828;53.756;21.140;2022-07-30T10:09:06;100071.05;;;23.57;40.92
64460;BME280;50828;53.756;21.140;2022-07-30T10:14:31;100070.09;;;23.66;40.94
64460;BME280;50828;53.756;21.140;2022-07-30T10:19:51;100061.58;;;23.72;40.60
64460;BME280;50828;53.756;21.140;2022-07-30T10:25:20;100064.91;;;23.76;40.39
64460;BME280;50828;53.756;21.140;2022-07-30T10:31:02;100060.05;;;23.80;40.26
64460;BME280;50828;53.756;21.140;2022-07-30T10:36:31;100057.80;;;23.87;40.48
64460;BME280;50828;53.756;21.140;2022-07-30T10:41:50;100056.33;;;23.95;40.44
64460;BME280;50828;53.756;21.140;2022-07-30T10:47:06;100060.52;;;24.02;40.16
64460;BME280;50828;53.756;21.140;2022-07-30T10:52:15;100058.75;;;24.07;39.92
64460;BME280;50828;53.756;21.140;2022-07-30T10:57:58;100057.10;;;24.11;39.88
64460;BME280;50828;53.756;21.140;2022-07-30T11:03:18;100057.73;;;24.15;39.70
64460;BME280;50828;53.756;21.140;2022-07-30T11:08:48;100061.98;;;24.22;39.80
64460;BME280;50828;53.756;21.140;2022-07-30T11:14:02;100062.20;;;24.29;39.55
64460;BME280;50828;53.756;21.140;2022-07-30T11:19:11;100058.04;;;24.34;39.06
64460;BME280;50828;53.756;21.140;2022-07-30T11:24:46;100044.94;;;24.39;38.99
64460;BME280;50828;53.756;21.140;2022-07-30T11:29:55;100046.34;;;24.45;38.77
64460;BME280;50828;53.756;21.140;2022-07-30T11:35:19;100043.01;;;24.48;38.80
64460;BME280;50828;53.756;21.140;2022-07-30T11:40:29;100036.98;;;24.51;38.70
64460;BME280;50828;53.756;21.140;2022-07-30T11:45:39;100033.30;;;24.53;38.79
64460;BME280;50828;53.756;21.140;2022-07-30T11:50:48;100025.34;;;24.58;38.74
64460;BME280;50828;53.756;21.140;2022-07-30T11:55:59;100019.78;;;24.63;38.58
64460;BME280;50828;53.756;21.140;2022-07-30T12:01:13;100022.15;;;24.68;38.38
64460;BME280;50828;53.756;21.140;2022-07-30T12:06:22;100015.27;;;24.72;38.03
64460;BME280;50828;53.756;21.140;2022-07-30T12:11:34;100011.63;;;24.76;37.92
64460;BME280;50828;53.756;21.140;2022-07-30T12:16:49;100008.30;;;24.79;37.80
64460;BME280;50828;53.756;21.140;2022-07-30T12:22:01;100007.33;;;24.81;37.72
64460;BME280;50828;53.756;21.140;2022-07-30T12:27:10;99996.59;;;24.84;37.85
64460;BME280;50828;53.756;21.140;2022-07-30T12:32:19;99995.99;;;24.86;37.72
64460;BME280;50828;53.756;21.140;2022-07-30T12:37:28;99986.65;;;24.88;37.76
64460;BME280;50828;53.756;21.140;2022-07-30T12:42:37;99983.64;;;24.90;37.64
64460;BME280;50828;53.756;21.140;2022-07-30T12:47:56;99985.98;;;24.92;37.67
64460;BME280;50828;53.756;21.140;2022-07-30T12:53:07;99993.52;;;24.95;37.69
64460;BME280;50828;53.756;21.140;2022-07-30T12:58:15;99982.09;;;24.96;37.68
64460;BME280;50828;53.756;21.140;2022-07-30T13:03:26;99983.77;;;24.96;37.71
64460;BME280;50828;53.756;21.140;2022-07-30T13:08:52;99982.67;;;24.97;37.62
64460;BME280;50828;53.756;21.140;2022-07-30T13:14:01;99979.77;;;24.97;37.69
64460;BME280;50828;53.756;21.140;2022-07-30T13:19:10;99975.13;;;24.96;37.55
64460;BME280;50828;53.756;21.140;2022-07-30T13:24:19;99970.38;;;24.96;37.54
64460;BME280;50828;53.756;21.140;2022-07-30T13:29:27;99964.30;;;24.95;37.39
64460;BME280;50828;53.756;21.140;2022-07-30T13:34:36;99958.32;;;24.96;37.60
64460;BME280;50828;53.756;21.140;2022-07-30T13:39:45;99945.08;;;24.95;37.77
64460;BME280;50828;53.756;21.140;2022-07-30T13:44:54;99943.60;;;25.00;37.63
64460;BME280;50828;53.756;21.140;2022-07-30T13:50:03;99934.35;;;25.04;37.65
64460;BME280;50828;53.756;21.140;2022-07-30T13:55:12;99929.80;;;25.08;37.65
64460;BME280;50828;53.756;21.140;2022-07-30T14:00:20;99925.38;;;25.13;37.48
64460;BME280;50828;53.756;21.140;2022-07-30T14:05:30;99920.60;;;25.15;37.28
64460;BME280;50828;53.756;21.140;2022-07-30T14:10:39;99915.71;;;25.16;37.41
64460;BME280;50828;53.756;21.140;2022-07-30T14:15:47;99916.89;;;25.15;37.25
64460;BME280;50828;53.756;21.140;2022-07-30T14:20:56;99912.89;;;25.13;36.96
64460;BME280;50828;53.756;21.140;2022-07-30T14:26:04;99906.59;;;25.09;37.04
64460;BME280;50828;53.756;21.140;2022-07-30T14:31:11;99910.11;;;25.05;37.39
64460;BME280;50828;53.756;21.140;2022-07-30T14:36:19;99910.54;;;25.01;37.60
64460;BME280;50828;53.756;21.140;2022-07-30T14:41:27;99915.00;;;24.98;37.83
64460;BME280;50828;53.756;21.140;2022-07-30T14:46:35;99911.94;;;24.95;37.70
64460;BME280;50828;53.756;21.140;2022-07-30T14:51:57;99899.23;;;24.88;37.60
64460;BME280;50828;53.756;21.140;2022-07-30T14:57:05;99892.94;;;24.83;38.02
64460;BME280;50828;53.756;21.140;2022-07-30T15:02:15;99889.87;;;24.78;38.96
64460;BME280;50828;53.756;21.140;2022-07-30T15:07:23;99890.52;;;24.72;38.95
64460;BME280;50828;53.756;21.140;2022-07-30T15:12:31;99884.30;;;24.67;39.05
64460;BME280;50828;53.756;21.140;2022-07-30T15:17:42;99883.45;;;24.63;39.07
64460;BME280;50828;53.756;21.140;2022-07-30T15:22:50;99863.55;;;24.49;39.00
64460;BME280;50828;53.756;21.140;2022-07-30T15:27:58;99875.40;;;24.54;38.88
64460;BME280;50828;53.756;21.140;2022-07-30T15:33:05;99872.66;;;24.49;38.92
64460;BME280;50828;53.756;21.140;2022-07-30T15:38:13;99878.71;;;24.46;38.94
64460;BME280;50828;53.756;21.140;2022-07-30T15:43:21;99875.90;;;24.44;38.93
64460;BME280;50828;53.756;21.140;2022-07-30T15:48:29;99877.27;;;24.41;38.91
64460;BME280;50828;53.756;21.140;2022-07-30T15:53:37;99880.87;;;24.37;38.98
64460;BME280;50828;53.756;21.140;2022-07-30T15:58:45;99877.49;;;24.33;38.84
64460;BME280;50828;53.756;21.140;2022-07-30T16:03:52;99876.29;;;24.29;38.83
64460;BME280;50828;53.756;21.140;2022-07-30T16:09:02;99873.95;;;24.24;38.80
64460;BME280;50828;53.756;21.140;2022-07-30T16:14:10;99876.73;;;24.18;38.79
64460;BME280;50828;53.756;21.140;2022-07-30T16:19:17;99871.85;;;24.11;38.78
64460;BME280;50828;53.756;21.140;2022-07-30T16:24:25;99867.15;;;24.06;38.97
64460;BME280;50828;53.756;21.140;2022-07-30T16:29:32;99866.33;;;24.00;39.14
64460;BME280;50828;53.756;21.140;2022-07-30T16:34:40;99870.95;;;23.94;39.14
64460;BME280;50828;53.756;21.140;2022-07-30T16:39:48;99871.89;;;23.89;39.23
64460;BME280;50828;53.756;21.140;2022-07-30T16:44:56;99867.41;;;23.81;39.41
64460;BME280;50828;53.756;21.140;2022-07-30T16:50:05;99869.70;;;23.76;39.45
64460;BME280;50828;53.756;21.140;2022-07-30T16:55:14;99866.66;;;23.71;39.56
64460;BME280;50828;53.756;21.140;2022-07-30T17:00:21;99862.66;;;23.66;39.61
64460;BME280;50828;53.756;21.140;2022-07-30T17:05:29;99862.86;;;23.60;39.85
64460;BME280;50828;53.756;21.140;2022-07-30T17:10:37;99872.66;;;23.57;39.93
64460;BME280;50828;53.756;21.140;2022-07-30T17:15:45;99871.02;;;23.52;39.97
64460;BME280;50828;53.756;21.140;2022-07-30T17:20:53;99869.92;;;23.47;39.99
64460;BME280;50828;53.756;21.140;2022-07-30T17:26:01;99869.70;;;23.41;40.16
64460;BME280;50828;53.756;21.140;2022-07-30T17:31:09;99864.86;;;23.38;40.24
64460;BME280;50828;53.756;21.140;2022-07-30T17:36:17;99863.76;;;23.33;40.34
64460;BME280;50828;53.756;21.140;2022-07-30T17:41:25;99860.20;;;23.26;40.56
64460;BME280;50828;53.756;21.140;2022-07-30T17:46:32;99864.84;;;23.21;40.76
64460;BME280;50828;53.756;21.140;2022-07-30T17:51:40;99858.63;;;23.15;40.83
64460;BME280;50828;53.756;21.140;2022-07-30T17:56:48;99855.27;;;23.09;41.00
64460;BME280;50828;53.756;21.140;2022-07-30T18:01:56;99848.94;;;23.01;41.10
64460;BME280;50828;53.756;21.140;2022-07-30T18:07:04;99846.73;;;22.93;41.38
64460;BME280;50828;53.756;21.140;2022-07-30T18:12:12;99850.77;;;22.86;41.53
64460;BME280;50828;53.756;21.140;2022-07-30T18:17:21;99855.42;;;22.79;41.70
64460;BME280;50828;53.756;21.140;2022-07-30T18:22:29;99861.55;;;22.71;41.89
64460;BME280;50828;53.756;21.140;2022-07-30T18:27:37;99865.82;;;22.64;42.05
64460;BME280;50828;53.756;21.140;2022-07-30T18:32:44;99871.73;;;22.56;42.24
64460;BME280;50828;53.756;21.140;2022-07-30T18:37:52;99867.33;;;22.46;42.45
64460;BME280;50828;53.756;21.140;2022-07-30T18:43:00;99868.59;;;22.40;42.57
64460;BME280;50828;53.756;21.140;2022-07-30T18:48:08;99875.45;;;22.34;42.79
64460;BME280;50828;53.756;21.140;2022-07-30T18:53:16;99872.73;;;22.26;42.95
64460;BME280;50828;53.756;21.140;2022-07-30T18:58:24;99868.92;;;22.19;43.13
64460;BME280;50828;53.756;21.140;2022-07-30T19:03:32;99864.86;;;22.12;43.46
64460;BME280;50828;53.756;21.140;2022-07-30T19:08:40;99865.27;;;22.06;43.52
64460;BME280;50828;53.756;21.140;2022-07-30T19:13:48;99863.80;;;21.98;43.77
64460;BME280;50828;53.756;21.140;2022-07-30T19:18:56;99862.04;;;21.92;43.75
64460;BME280;50828;53.756;21.140;2022-07-30T19:24:05;99858.67;;;21.86;43.90
64460;BME280;50828;53.756;21.140;2022-07-30T19:29:14;99861.72;;;21.80;43.98
64460;BME280;50828;53.756;21.140;2022-07-30T19:34:22;99857.05;;;21.74;44.15
64460;BME280;50828;53.756;21.140;2022-07-30T19:39:31;99857.77;;;21.69;44.22
64460;BME280;50828;53.756;21.140;2022-07-30T19:44:39;99858.88;;;21.62;44.27
64460;BME280;50828;53.756;21.140;2022-07-30T19:49:47;99856.55;;;21.56;44.41
64460;BME280;50828;53.756;21.140;2022-07-30T19:54:58;99859.81;;;21.50;44.39
64460;BME280;50828;53.756;21.140;2022-07-30T20:00:10;99860.92;;;21.42;44.39
64460;BME280;50828;53.756;21.140;2022-07-30T20:05:30;99858.20;;;21.35;44.55
64460;BME280;50828;53.756;21.140;2022-07-30T20:10:58;99856.14;;;21.28;44.72
64460;BME280;50828;53.756;21.140;2022-07-30T20:16:07;99853.45;;;21.22;44.90
64460;BME280;50828;53.756;21.140;2022-07-30T20:21:17;99852.71;;;21.14;45.05
64460;BME280;50828;53.756;21.140;2022-07-30T20:26:45;99847.70;;;21.08;45.12
64460;BME280;50828;53.756;21.140;2022-07-30T20:31:54;99841.02;;;21.03;45.23
64460;BME280;50828;53.756;21.140;2022-07-30T20:37:04;99834.48;;;20.97;45.46
64460;BME280;50828;53.756;21.140;2022-07-30T20:42:27;99829.67;;;20.93;45.36
64460;BME280;50828;53.756;21.140;2022-07-30T20:47:35;99830.02;;;20.89;45.46
64460;BME280;50828;53.756;21.140;2022-07-30T20:52:45;99829.81;;;20.86;45.62
64460;BME280;50828;53.756;21.140;2022-07-30T20:57:53;99829.20;;;20.82;45.64
64460;BME280;50828;53.756;21.140;2022-07-30T21:03:22;99832.46;;;20.80;45.75
64460;BME280;50828;53.756;21.140;2022-07-30T21:08:34;99835.14;;;20.78;45.83
64460;BME280;50828;53.756;21.140;2022-07-30T21:13:42;99829.98;;;20.76;45.66
64460;BME280;50828;53.756;21.140;2022-07-30T21:18:51;99826.27;;;20.72;45.81
64460;BME280;50828;53.756;21.140;2022-07-30T21:24:01;99818.38;;;20.71;45.70
64460;BME280;50828;53.756;21.140;2022-07-30T21:29:09;99815.98;;;20.67;45.70
64460;BME280;50828;53.756;21.140;2022-07-30T21:34:16;99820.46;;;20.66;45.78
64460;BME280;50828;53.756;21.140;2022-07-30T21:39:30;99818.80;;;20.62;45.81
64460;BME280;50828;53.756;21.140;2022-07-30T21:44:45;99816.61;;;20.60;45.78
64460;BME280;50828;53.756;21.140;2022-07-30T21:49:53;99813.44;;;20.58;45.80
64460;BME280;50828;53.756;21.140;2022-07-30T21:55:04;99809.29;;;20.54;45.68
64460;BME280;50828;53.756;21.140;2022-07-30T22:00:15;99804.90;;;20.51;45.71
64460;BME280;50828;53.756;21.140;2022-07-30T22:05:28;99806.19;;;20.48;45.74
64460;BME280;50828;53.756;21.140;2022-07-30T22:10:45;99804.84;;;20.45;45.59
64460;BME280;50828;53.756;21.140;2022-07-30T22:15:56;99801.18;;;20.42;45.73
64460;BME280;50828;53.756;21.140;2022-07-30T22:21:04;99797.37;;;20.39;45.43
64460;BME280;50828;53.756;21.140;2022-07-30T22:26:12;99797.54;;;20.34;45.43
64460;BME280;50828;53.756;21.140;2022-07-30T22:31:20;99795.89;;;20.30;45.56
64460;BME280;50828;53.756;21.140;2022-07-30T22:36:35;99788.33;;;20.27;45.51
64460;BME280;50828;53.756;21.140;2022-07-30T22:41:43;99784.30;;;20.24;45.47
64460;BME280;50828;53.756;21.140;2022-07-30T22:46:50;99776.32;;;20.21;45.44
64460;BME280;50828;53.756;21.140;2022-07-30T22:52:00;99776.36;;;20.18;45.59
64460;BME280;50828;53.756;21.140;2022-07-30T22:57:28;99771.99;;;20.15;45.51
64460;BME280;50828;53.756;21.140;2022-07-30T23:02:43;99776.23;;;20.12;45.38
64460;BME280;50828;53.756;21.140;2022-07-30T23:07:52;99767.50;;;20.09;45.29
64460;BME280;50828;53.756;21.140;2022-07-30T23:13:00;99758.08;;;20.07;45.23
64460;BME280;50828;53.756;21.140;2022-07-30T23:18:08;99756.05;;;20.03;45.36
64460;BME280;50828;53.756;21.140;2022-07-30T23:23:15;99755.43;;;20.02;45.28
64460;BME280;50828;53.756;21.140;2022-07-30T23:28:23;99739.80;;;19.92;45.35
64460;BME280;50828;53.756;21.140;2022-07-30T23:33:31;99748.54;;;19.97;45.53
64460;BME280;50828;53.756;21.140;2022-07-30T23:38:39;99743.48;;;19.95;45.30
64460;BME280;50828;53.756;21.140;2022-07-30T23:43:48;99740.29;;;19.93;45.53
64460;BME280;50828;53.756;21.140;2022-07-30T23:48:56;99738.45;;;19.89;45.38
64460;BME280;50828;53.756;21.140;2022-07-30T23:54:04;99733.54;;;19.84;45.69
64460;BME280;50828;53.756;21.140;2022-07-30T23:59:12;99733.77;;;19.81;45.70
